Latest Weather Observations for Montague Island

IDN60901

Issued at 3:21 pm EST Sunday 31 July 2016 (issued every 10 minutes, with the page automatically refreshed every 10 minutes)

About weather observations | Map of Canberra area stations | Latest observations for Canberra area | Other Formats
Station Details ID: 069017 Name: MONTAGUE ISLAND LIGHTHOUSE Lat: -36.25 Lon: 150.23 Height: 52.0 m
Data from the previous 72 hours. | See also: Recent months at Montague Island
Date/Time
EST
Temp
°C
App
Temp
°C
Dew
Point
°C
Rel
Hum
%
Delta-T
°C
Wind Press
QNH
hPa
Press
MSL
hPa
Rain since
9am
mm
Dir  Spd
km/h
Gust
km/h
Spd
kts
Gust
kts
31/03:00pm 16.3 15.3 10.2 67 3.2 ENE 6 9 3 5 1013.4 1013.4 0.0
31/02:30pm 16.6 15.0 10.2 66 3.4 NE 9 13 5 7 1013.1 1013.1 0.0
31/02:00pm 16.3 14.2 9.7 65 3.5 NNE 11 15 6 8 1013.1 1013.1 0.0
31/01:30pm 16.7 14.0 9.1 61 3.9 N 13 19 7 10 1013.1 1013.1 0.0
31/01:00pm 16.6 13.5 8.8 60 4.0 N 15 20 8 11 1013.3 1013.3 0.0
31/12:30pm 16.8 13.4 9.0 60 4.0 N 17 22 9 12 1013.6 1013.6 0.0
31/12:00pm 15.7 12.8 9.6 67 3.2 N 15 20 8 11 1014.0 1014.0 0.0
31/11:30am 15.6 13.4 10.8 73 2.6 NNW 13 17 7 9 1014.5 1014.5 0.0
31/11:00am 14.8 12.4 10.0 73 2.5 NNW 13 17 7 9 1014.7 1014.7 0.0
31/10:30am 13.8 10.9 9.5 75 2.2 NNW 15 19 8 10 1015.0 1015.0 0.0
31/10:00am 13.9 10.9 9.1 73 2.4 NNW 15 17 8 9 1015.0 1015.0 0.0
31/09:30am 13.1 10.0 8.8 75 2.2 NNW 15 20 8 11 1015.1 1015.1 0.0
31/09:00am 12.8 9.8 9.1 78 1.9 NNW 15 22 8 12 1014.9 1014.9 3.2
31/08:30am 13.1 10.1 10.5 84 1.4 NNW 17 24 9 13 1014.8 1014.8 3.2
31/08:00am 13.0 10.3 10.2 83 1.4 NNW 15 22 8 12 1014.6 1014.6 3.2
31/07:30am 12.7 10.2 8.2 74 2.2 NNE 11 17 6 9 1014.3 1014.3 3.2
31/07:00am 12.9 11.3 8.6 75 2.2 NE 7 11 4 6 1014.3 1014.3 3.2
31/06:30am 12.7 11.3 7.4 70 2.6 SSW 4 7 2 4 1014.3 1014.3 2.6
31/06:00am 12.6 10.6 7.1 69 2.7 SSW 7 11 4 6 1014.3 1014.3 2.2
31/05:30am 12.6 9.3 7.9 73 2.3 WSW 15 19 8 10 1014.1 1014.1 1.4
31/05:00am 12.7 8.3 7.6 71 2.5 W 20 30 11 16 1013.6 1013.6 0.0
31/04:30am 12.7 9.3 7.8 72 2.4 NW 15 22 8 12 1013.1 1013.1 0.0
31/04:00am 12.7 8.0 7.6 71 2.5 NNW 22 32 12 17 1012.5 1012.6 0.0
31/03:30am 12.3 8.0 7.8 74 2.2 NNW 20 28 11 15 1012.7 1012.8 0.0
31/03:00am 12.3 8.3 8.4 77 1.9 NNW 19 24 10 13 1013.3 1013.3 0.0
31/02:30am 12.2 8.5 8.1 76 2.0 NNW 17 28 9 15 1013.5 1013.5 0.0
31/02:00am 11.5 8.0 7.2 75 2.1 NNW 15 20 8 11 1014.0 1014.0 0.0
31/01:30am 11.4 7.8 6.9 74 2.1 NNW 15 20 8 11 1014.7 1014.7 0.0
31/01:00am 11.5 8.0 7.2 75 2.1 NW 15 20 8 11 1014.9 1014.9 0.0
31/12:30am 11.5 8.0 7.0 74 2.2 NNW 15 22 8 12 1014.9 1014.9 0.0
31/12:00am 11.8 8.4 7.5 75 2.1 NNW 15 20 8 11 1015.2 1015.2 0.0
 
Date/Time
EST
Temp
°C
App
Temp
°C
Dew
Point
°C
Rel
Hum
%
Delta-T
°C
Wind Press
QNH
hPa
Press
MSL
hPa
Rain since
9am
mm
Dir  Spd
km/h
Gust
km/h
Spd
kts
Gust
kts
30/11:30pm 11.8 8.2 6.9 72 2.3 NW 15 22 8 12 1015.7 1015.7 0.0
30/11:00pm 11.7 8.1 6.6 71 2.4 NNW 15 22 8 12 1015.6 1015.6 0.0
30/10:30pm 12.0 8.1 7.3 73 2.3 NW 17 24 9 13 1016.6 1016.6 0.0
30/10:00pm 12.1 8.7 7.8 75 2.1 NNW 15 22 8 12 1016.8 1016.8 0.0
30/09:30pm 12.2 8.8 7.7 74 2.2 NW 15 19 8 10 1017.1 1017.1 0.0
30/09:00pm 12.2 9.5 7.5 73 2.3 NW 11 15 6 8 1017.5 1017.5 0.0
30/08:30pm 13.1 10.3 8.4 73 2.3 NW 13 19 7 10 1017.7 1017.7 0.0
30/08:00pm 14.0 9.1 8.4 69 2.8 N 24 35 13 19 1017.9 1017.9 0.0
30/07:30pm 14.2 9.6 8.2 67 3.0 N 22 30 12 16 1017.8 1017.8 0.0
30/07:00pm 14.5 9.4 7.5 63 3.5 NNE 24 30 13 16 1017.8 1017.8 0.0
30/06:30pm 14.3 9.1 7.4 63 3.4 NNE 24 28 13 15 1017.8 1017.8 0.0
30/06:00pm 14.1 9.1 6.5 60 3.7 NNE 22 26 12 14 1018.0 1018.0 0.0
30/05:30pm 14.1 9.5 6.7 61 3.6 NE 20 28 11 15 1018.0 1018.0 0.0
30/05:00pm 14.1 8.5 5.5 56 4.1 NE 24 33 13 18 1017.6 1017.6 0.0
30/04:30pm 14.1 8.9 5.7 57 4.0 NE 22 28 12 15 1017.9 1017.9 0.0
30/04:00pm 14.2 9.3 5.0 54 4.3 ENE 20 24 11 13 1018.5 1018.5 0.0
30/03:30pm 14.5 9.5 4.5 51 4.6 ENE 20 24 11 13 1018.7 1018.7 0.0
30/03:00pm 14.7 9.5 3.8 48 5.0 ENE 20 24 11 13 1019.0 1019.0 0.0
30/02:30pm 14.9 9.8 3.1 45 5.3 ENE 19 22 10 12 1019.1 1019.1 0.0
30/02:00pm 15.2 10.7 4.3 48 5.1 ENE 17 20 9 11 1019.2 1019.2 0.0
30/01:30pm 15.3 11.4 5.5 52 4.7 ENE 15 19 8 10 1019.5 1019.5 0.0
30/01:00pm 15.0 11.8 5.2 52 4.6 ENE 11 13 6 7 1020.2 1020.2 0.0
30/12:30pm 14.9 12.0 4.6 50 4.8 E 9 11 5 6 1020.7 1020.7 0.0
30/12:00pm 15.3 13.0 4.7 49 5.0 SE 6 11 3 6 1021.1 1021.1 0.0
30/11:30am 16.6 14.1 4.9 46 5.6 WSW 7 11 4 6 1021.6 1021.6 0.0
30/11:00am 15.8 13.1 5.7 51 4.8 W 9 11 5 6 1022.1 1022.1 0.0
30/10:30am 15.8 12.5 6.5 54 4.5 W 13 17 7 9 1022.4 1022.4 0.0
30/10:00am 14.8 11.2 6.9 59 3.8 W 15 20 8 11 1022.5 1022.5 0.0
30/09:30am 14.1 10.0 6.0 58 3.9 W 17 20 9 11 1022.5 1022.5 0.0
30/09:00am 13.4 9.3 6.0 61 3.5 W 17 22 9 12 1022.6 1022.6 0.0
30/08:30am 12.3 8.1 5.5 63 3.2 W 17 24 9 13 1022.4 1022.4 0.0
30/08:00am 11.9 7.7 5.5 65 3.0 W 17 24 9 13 1022.3 1022.3 0.0
30/07:30am 11.4 7.2 5.5 67 2.7 W 17 22 9 12 1022.1 1022.1 0.0
30/07:00am 11.3 6.8 6.0 70 2.5 W 19 22 10 12 1021.8 1021.8 0.0
30/06:30am 11.0 7.7 6.4 73 2.2 W 13 19 7 10 1021.6 1021.6 0.0
30/06:00am 11.1 8.2 6.6 74 2.1 W 11 13 6 7 1021.6 1021.6 0.0
30/05:30am 11.0 8.5 6.4 73 2.2 WNW 9 15 5 8 1021.1 1021.1 0.0
30/05:00am 11.1 8.7 7.0 76 1.9 W 9 15 5 8 1020.8 1020.8 0.0
30/04:30am 11.7 10.0 7.4 75 2.1 SW 6 13 3 7 1020.5 1020.5 0.0
30/04:00am 11.6 8.8 5.3 65 2.9 WSW 9 13 5 7 1020.5 1020.5 0.0
30/03:30am 11.5 8.5 6.0 69 2.6 WSW 11 13 6 7 1020.3 1020.3 0.0
30/03:00am 11.3 8.2 5.6 68 2.6 W 11 15 6 8 1020.1 1020.1 0.0
30/02:30am 11.6 8.8 5.3 65 2.9 W 9 13 5 7 1020.1 1020.1 0.0
30/02:00am 11.9 9.0 4.9 62 3.2 WNW 9 13 5 7 1020.2 1020.2 0.0
30/01:30am 11.9 7.9 4.9 62 3.2 W 15 20 8 11 1020.1 1020.1 0.0
30/01:00am 12.4 8.1 5.1 61 3.4 W 17 19 9 10 1020.1 1020.1 0.0
30/12:30am 12.5 8.1 5.0 60 3.5 W 17 22 9 12 1020.1 1020.1 0.0
30/12:00am 12.5 7.7 4.7 59 3.6 W 19 24 10 13 1020.1 1020.1 0.0
 
Date/Time
EST
Temp
°C
App
Temp
°C
Dew
Point
°C
Rel
Hum
%
Delta-T
°C
Wind Press
QNH
hPa
Press
MSL
hPa
Rain since
9am
mm
Dir  Spd
km/h
Gust
km/h
Spd
kts
Gust
kts
29/11:30pm 12.5 7.7 4.5 58 3.7 W 19 26 10 14 1020.2 1020.2 0.0
29/11:00pm 12.6 7.8 4.8 59 3.6 W 19 26 10 14 1019.9 1019.9 0.0
29/10:30pm 13.0 8.2 5.7 61 3.4 W 20 32 11 17 1019.5 1019.5 0.0
29/10:00pm 12.8 8.3 6.2 64 3.1 W 19 28 10 15 1019.4 1019.4 0.0
29/09:30pm 12.9 8.9 6.5 65 3.1 WNW 17 20 9 11 1019.2 1019.2 0.0
29/09:00pm 13.1 10.3 8.6 74 2.2 W 13 15 7 8 1019.1 1019.1 0.0
29/08:30pm 12.9 10.9 8.8 76 2.1 W 9 11 5 6 1018.9 1018.9 0.0
29/08:00pm 13.5 10.9 9.2 75 2.2 WNW 13 15 7 8 1018.8 1018.8 0.0
29/07:30pm 13.5 10.5 9.4 76 2.1 NW 15 19 8 10 1018.3 1018.3 0.0
29/07:00pm 13.3 9.8 8.8 74 2.3 WNW 17 20 9 11 1017.8 1017.8 0.0
29/06:30pm 13.2 10.7 8.3 72 2.4 WNW 11 15 6 8 1017.6 1017.6 0.0
29/06:00pm 12.9 10.1 8.6 75 2.1 NW 13 17 7 9 1017.1 1017.1 0.0
29/05:30pm 13.0 10.2 8.5 74 2.2 NW 13 15 7 8 1016.8 1016.8 0.0
29/05:00pm 13.3 11.4 6.6 64 3.2 NNE 6 7 3 4 1016.7 1016.7 0.0
29/04:30pm 13.4 11.4 7.2 66 3.0 SE 7 9 4 5 1016.7 1016.7 0.0
29/04:00pm 13.2 11.2 7.0 66 3.0 SE 7 9 4 5 1016.5 1016.5 0.0
29/03:30pm 14.0 13.0 7.3 64 3.3 ENE 2 4 1 2 1016.6 1016.6 0.0
29/03:00pm 13.1 11.7 7.3 68 2.8 E 4 7 2 4 1016.6 1016.6 0.0
29/02:30pm 13.9 12.3 7.9 67 3.0 NE 6 9 3 5 1016.5 1016.5 0.0
29/02:00pm 13.0 11.1 7.5 69 2.7 ENE 7 9 4 5 1016.5 1016.5 0.0
29/01:30pm 13.5 11.7 8.1 70 2.7 ENE 7 11 4 6 1016.5 1016.5 0.0
29/01:00pm 13.0 11.1 7.7 70 2.6 SE 7 11 4 6 1017.2 1017.2 0.0
29/12:30pm 13.6 12.2 7.4 66 3.0 ENE 4 7 2 4 1017.5 1017.5 0.0
29/12:00pm 13.5 12.2 7.5 67 2.9 SSE 4 9 2 5 1018.2 1018.2 0.0
29/11:30am 13.5 11.5 6.4 62 3.4 E 6 9 3 5 1018.6 1018.6 0.0
29/11:00am 13.5 11.4 5.7 59 3.7 SW 6 9 3 5 1019.3 1019.3 0.0
29/10:30am 12.7 10.3 5.4 61 3.4 NW 7 11 4 6 1019.7 1019.7 0.0
29/10:00am 12.9 10.4 4.8 58 3.7 NW 7 11 4 6 1019.8 1019.8 0.0
29/09:30am 11.7 8.9 5.3 65 3.0 NW 9 13 5 7 1019.9 1019.9 0.0
29/09:00am 11.3 8.6 5.8 69 2.6 NW 9 13 5 7 1020.0 1020.0 0.0
29/08:30am 10.6 8.0 6.2 74 2.1 WNW 9 11 5 6 1020.0 1020.0 0.0
29/08:00am 10.1 7.1 6.1 76 1.8 NW 11 13 6 7 1020.0 1020.0 0.0
29/07:30am 9.5 6.3 5.3 75 1.9 NNW 11 13 6 7 1020.1 1020.1 0.0
29/07:00am 9.2 6.0 5.2 76 1.8 NW 11 13 6 7 1020.1 1020.1 0.0
29/06:30am 9.6 6.1 5.6 76 1.8 NW 13 17 7 9 1020.0 1020.0 0.0
29/06:00am 9.7 5.6 4.3 69 2.4 WNW 15 19 8 10 1019.9 1019.9 0.0
29/05:30am 9.9 6.0 3.4 64 2.8 WNW 13 15 7 8 1019.8 1019.8 0.0
29/05:00am 9.8 5.1 3.1 63 2.9 WNW 17 20 9 11 1020.0 1020.0 0.0
29/04:30am 10.3 5.8 2.2 57 3.4 WNW 15 20 8 11 1019.7 1019.7 0.0
29/04:00am 10.4 6.0 2.7 59 3.3 WNW 15 19 8 10 1019.7 1019.7 0.0
29/03:30am 10.4 5.7 3.2 61 3.1 WNW 17 20 9 11 1019.9 1019.9 0.0
29/03:00am 11.0 6.6 2.8 57 3.5 WNW 15 17 8 9 1020.2 1020.2 0.0
29/02:30am 10.6 6.3 3.4 61 3.2 WNW 15 19 8 10 1020.4 1020.4 0.0
29/02:00am 11.1 7.5 3.2 58 3.4 WNW 11 13 6 7 1020.8 1020.8 0.0
29/01:30am 11.1 7.0 2.2 54 3.8 WNW 13 17 7 9 1020.9 1020.9 0.0
29/01:00am 11.1 6.6 2.4 55 3.7 WNW 15 17 8 9 1020.9 1020.9 0.0
29/12:30am 11.0 8.3 5.7 70 2.5 W 9 13 5 7 1021.1 1021.1 0.0
29/12:00am 10.9 7.2 4.6 65 2.8 SW 13 17 7 9 1020.9 1020.9 0.0
 
Date/Time
EST
Temp
°C
App
Temp
°C
Dew
Point
°C
Rel
Hum
%
Delta-T
°C
Wind Press
QNH
hPa
Press
MSL
hPa
Rain since
9am
mm
Dir  Spd
km/h
Gust
km/h
Spd
kts
Gust
kts
28/11:30pm 11.5 7.5 4.9 64 3.0 SW 15 17 8 9 1020.8 1020.8 0.0
28/11:00pm 11.7 8.3 4.0 59 3.4 WSW 11 13 6 7 1020.9 1020.9 0.0
28/10:30pm 12.0 7.7 3.3 55 3.9 WSW 15 20 8 11 1020.6 1020.6 0.0
28/10:00pm 12.1 6.4 2.8 53 4.1 W 22 32 12 17 1020.4 1020.4 0.0
28/09:30pm 12.4 7.4 3.4 54 4.0 W 19 28 10 15 1020.4 1020.4 0.0
28/09:00pm 12.7 6.4 3.6 54 4.1 W 26 33 14 18 1020.5 1020.5 0.0
28/08:30pm 12.9 6.5 3.3 52 4.3 W 26 35 14 19 1020.3 1020.3 0.0
28/08:00pm 13.4 6.7 3.5 51 4.4 W 28 37 15 20 1020.1 1020.1 0.0
28/07:30pm 13.8 6.4 3.9 51 4.5 W 32 41 17 22 1019.7 1019.7 0.0
28/07:00pm 13.8 8.5 4.9 55 4.1 W 22 32 12 17 1019.6 1019.6 0.0
28/06:30pm 13.9 10.4 7.2 64 3.3 WNW 15 20 8 11 1019.4 1019.4 0.0
28/06:00pm 14.3 11.5 9.9 75 2.3 NNW 15 19 8 10 1019.3 1019.3 0.0
28/05:30pm 14.1 11.3 10.1 77 2.1 N 15 20 8 11 1018.9 1018.9 0.0
28/05:00pm 14.2 11.4 10.0 76 2.2 N 15 17 8 9 1018.7 1018.7 0.0
28/04:30pm 14.6 11.7 9.6 72 2.6 N 15 19 8 10 1018.5 1018.5 0.0
28/04:00pm 14.7 11.8 9.7 72 2.6 N 15 20 8 11 1018.5 1018.5 0.0
28/03:30pm 14.8 11.5 9.6 71 2.7 N 17 26 9 14 1018.5 1018.5 0.0

Latest Capital City Observations: Canberra | Sydney | Melbourne | Brisbane | Adelaide | Perth | Hobart | Darwin

Other Formats:

Comma delimited format used in spreadsheet applications
http://www.bom.gov.au/fwo/IDN60903/IDN60903.94939.axf

JavaScript Object Notation format (JSON) in row-major order
http://www.bom.gov.au/fwo/IDN60903/IDN60903.94939.json